sensor_id;sensor_type;location;lat;lon;timestamp;P1;durP1;ratioP1;P2;durP2;ratioP2
6821;SDS011;3449;48.728;8.968;2024-01-15T00:00:14;20.50;;;7.90;;
6821;SDS011;3449;48.728;8.968;2024-01-15T00:02:42;23.60;;;9.10;;
6821;SDS011;3449;48.728;8.968;2024-01-15T00:05:09;27.57;;;8.60;;
6821;SDS011;3449;48.728;8.968;2024-01-15T00:07:36;27.70;;;9.53;;
6821;SDS011;3449;48.728;8.968;2024-01-15T00:10:03;24.47;;;7.30;;
6821;SDS011;3449;48.728;8.968;2024-01-15T00:12:30;24.90;;;9.33;;
6821;SDS011;3449;48.728;8.968;2024-01-15T00:14:57;21.50;;;7.67;;
6821;SDS011;3449;48.728;8.968;2024-01-15T00:17:24;21.80;;;8.00;;
6821;SDS011;3449;48.728;8.968;2024-01-15T00:19:52;24.00;;;8.20;;
6821;SDS011;3449;48.728;8.968;2024-01-15T00:22:19;18.43;;;7.77;;
6821;SDS011;3449;48.728;8.968;2024-01-15T00:24:46;30.67;;;8.20;;
6821;SDS011;3449;48.728;8.968;2024-01-15T00:27:13;19.20;;;7.17;;
6821;SDS011;3449;48.728;8.968;2024-01-15T00:29:40;17.97;;;7.43;;
6821;SDS011;3449;48.728;8.968;2024-01-15T00:32:07;20.63;;;8.03;;
6821;SDS011;3449;48.728;8.968;2024-01-15T00:34:34;23.77;;;7.93;;
6821;SDS011;3449;48.728;8.968;2024-01-15T00:37:02;19.30;;;7.23;;
6821;SDS011;3449;48.728;8.968;2024-01-15T00:39:32;19.10;;;7.60;;
6821;SDS011;3449;48.728;8.968;2024-01-15T00:41:58;21.80;;;8.20;;
6821;SDS011;3449;48.728;8.968;2024-01-15T00:44:25;21.80;;;8.47;;
6821;SDS011;3449;48.728;8.968;2024-01-15T00:46:52;21.87;;;7.73;;
6821;SDS011;3449;48.728;8.968;2024-01-15T00:49:19;22.30;;;7.97;;
6821;SDS011;3449;48.728;8.968;2024-01-15T00:51:47;17.50;;;6.77;;
6821;SDS011;3449;48.728;8.968;2024-01-15T00:54:15;18.67;;;7.60;;
6821;SDS011;3449;48.728;8.968;2024-01-15T00:56:42;21.73;;;7.53;;
6821;SDS011;3449;48.728;8.968;2024-01-15T00:59:09;23.00;;;8.00;;
6821;SDS011;3449;48.728;8.968;2024-01-15T01:01:39;20.90;;;8.03;;
6821;SDS011;3449;48.728;8.968;2024-01-15T01:04:07;18.97;;;7.90;;
6821;SDS011;3449;48.728;8.968;2024-01-15T01:06:34;28.13;;;8.80;;
6821;SDS011;3449;48.728;8.968;2024-01-15T01:09:01;19.30;;;6.40;;
6821;SDS011;3449;48.728;8.968;2024-01-15T01:11:29;20.50;;;7.80;;
6821;SDS011;3449;48.728;8.968;2024-01-15T01:13:56;23.93;;;8.00;;
6821;SDS011;3449;48.728;8.968;2024-01-15T01:16:23;17.83;;;7.60;;
6821;SDS011;3449;48.728;8.968;2024-01-15T01:18:50;27.20;;;9.27;;
6821;SDS011;3449;48.728;8.968;2024-01-15T01:21:17;19.93;;;7.37;;
6821;SDS011;3449;48.728;8.968;2024-01-15T01:23:44;20.10;;;7.10;;
6821;SDS011;3449;48.728;8.968;2024-01-15T01:26:10;21.67;;;7.63;;
6821;SDS011;3449;48.728;8.968;2024-01-15T01:28:42;27.57;;;8.27;;
6821;SDS011;3449;48.728;8.968;2024-01-15T01:31:09;18.13;;;7.30;;
6821;SDS011;3449;48.728;8.968;2024-01-15T01:33:37;22.30;;;8.30;;
6821;SDS011;3449;48.728;8.968;2024-01-15T01:36:06;18.43;;;6.20;;
6821;SDS011;3449;48.728;8.968;2024-01-15T01:38:34;22.20;;;7.83;;
6821;SDS011;3449;48.728;8.968;2024-01-15T01:41:01;18.60;;;6.93;;
6821;SDS011;3449;48.728;8.968;2024-01-15T01:43:28;17.53;;;6.90;;
6821;SDS011;3449;48.728;8.968;2024-01-15T01:45:55;24.07;;;7.70;;
6821;SDS011;3449;48.728;8.968;2024-01-15T01:48:23;22.43;;;7.57;;
6821;SDS011;3449;48.728;8.968;2024-01-15T01:50:51;24.07;;;7.70;;
6821;SDS011;3449;48.728;8.968;2024-01-15T01:53:19;20.60;;;7.93;;
6821;SDS011;3449;48.728;8.968;2024-01-15T01:55:46;19.33;;;7.93;;
6821;SDS011;3449;48.728;8.968;2024-01-15T01:58:14;18.90;;;6.77;;
6821;SDS011;3449;48.728;8.968;2024-01-15T02:00:41;17.80;;;7.10;;
6821;SDS011;3449;48.728;8.968;2024-01-15T02:03:10;28.17;;;8.33;;
6821;SDS011;3449;48.728;8.968;2024-01-15T02:05:37;23.80;;;7.40;;
6821;SDS011;3449;48.728;8.968;2024-01-15T02:08:05;21.60;;;7.50;;
6821;SDS011;3449;48.728;8.968;2024-01-15T02:10:32;27.27;;;9.63;;
6821;SDS011;3449;48.728;8.968;2024-01-15T02:12:59;26.33;;;7.83;;
6821;SDS011;3449;48.728;8.968;2024-01-15T02:15:26;25.20;;;8.13;;
6821;SDS011;3449;48.728;8.968;2024-01-15T02:17:56;18.80;;;7.23;;
6821;SDS011;3449;48.728;8.968;2024-01-15T02:20:25;15.80;;;6.93;;
6821;SDS011;3449;48.728;8.968;2024-01-15T02:22:52;19.47;;;7.30;;
6821;SDS011;3449;48.728;8.968;2024-01-15T02:25:20;27.40;;;8.40;;
6821;SDS011;3449;48.728;8.968;2024-01-15T02:27:47;20.70;;;7.43;;
6821;SDS011;3449;48.728;8.968;2024-01-15T02:30:14;17.37;;;6.60;;
6821;SDS011;3449;48.728;8.968;2024-01-15T02:32:43;19.93;;;7.37;;
6821;SDS011;3449;48.728;8.968;2024-01-15T02:35:09;25.13;;;8.60;;
6821;SDS011;3449;48.728;8.968;2024-01-15T02:37:36;25.77;;;7.47;;
6821;SDS011;3449;48.728;8.968;2024-01-15T02:40:03;16.97;;;5.20;;
6821;SDS011;3449;48.728;8.968;2024-01-15T02:42:32;19.87;;;6.87;;
6821;SDS011;3449;48.728;8.968;2024-01-15T02:44:59;20.63;;;7.60;;
6821;SDS011;3449;48.728;8.968;2024-01-15T02:47:26;25.73;;;7.63;;
6821;SDS011;3449;48.728;8.968;2024-01-15T02:49:53;20.37;;;7.53;;
6821;SDS011;3449;48.728;8.968;2024-01-15T02:52:20;17.77;;;7.33;;
6821;SDS011;3449;48.728;8.968;2024-01-15T02:54:46;21.53;;;7.57;;
6821;SDS011;3449;48.728;8.968;2024-01-15T02:57:13;22.70;;;6.97;;
6821;SDS011;3449;48.728;8.968;2024-01-15T02:59:41;20.03;;;7.10;;
6821;SDS011;3449;48.728;8.968;2024-01-15T03:02:08;19.90;;;7.90;;
6821;SDS011;3449;48.728;8.968;2024-01-15T03:04:35;21.57;;;7.30;;
6821;SDS011;3449;48.728;8.968;2024-01-15T03:07:02;20.67;;;7.00;;
6821;SDS011;3449;48.728;8.968;2024-01-15T03:09:29;18.33;;;6.50;;
6821;SDS011;3449;48.728;8.968;2024-01-15T03:11:56;24.53;;;8.80;;
6821;SDS011;3449;48.728;8.968;2024-01-15T03:14:23;19.30;;;7.50;;
6821;SDS011;3449;48.728;8.968;2024-01-15T03:16:52;18.57;;;7.40;;
6821;SDS011;3449;48.728;8.968;2024-01-15T03:19:19;19.37;;;7.57;;
6821;SDS011;3449;48.728;8.968;2024-01-15T03:21:46;21.67;;;7.17;;
6821;SDS011;3449;48.728;8.968;2024-01-15T03:24:13;19.13;;;5.90;;
6821;SDS011;3449;48.728;8.968;2024-01-15T03:26:40;18.43;;;6.50;;
6821;SDS011;3449;48.728;8.968;2024-01-15T03:29:07;16.63;;;7.20;;
6821;SDS011;3449;48.728;8.968;2024-01-15T03:31:34;25.13;;;7.20;;
6821;SDS011;3449;48.728;8.968;2024-01-15T03:34:02;16.10;;;6.63;;
6821;SDS011;3449;48.728;8.968;2024-01-15T03:36:29;16.70;;;7.87;;
6821;SDS011;3449;48.728;8.968;2024-01-15T03:38:56;17.93;;;6.70;;
6821;SDS011;3449;48.728;8.968;2024-01-15T03:41:23;18.00;;;7.07;;
6821;SDS011;3449;48.728;8.968;2024-01-15T03:43:49;18.70;;;6.87;;
6821;SDS011;3449;48.728;8.968;2024-01-15T03:46:16;18.57;;;6.87;;
6821;SDS011;3449;48.728;8.968;2024-01-15T03:48:43;15.00;;;6.13;;
6821;SDS011;3449;48.728;8.968;2024-01-15T03:51:11;18.57;;;6.10;;
6821;SDS011;3449;48.728;8.968;2024-01-15T03:53:38;14.77;;;5.83;;
6821;SDS011;3449;48.728;8.968;2024-01-15T03:56:05;19.50;;;5.90;;
6821;SDS011;3449;48.728;8.968;2024-01-15T03:58:32;20.83;;;7.50;;
6821;SDS011;3449;48.728;8.968;2024-01-15T04:00:59;20.70;;;7.40;;
6821;SDS011;3449;48.728;8.968;2024-01-15T04:03:25;18.93;;;7.13;;
6821;SDS011;3449;48.728;8.968;2024-01-15T04:05:52;17.33;;;5.77;;
6821;SDS011;3449;48.728;8.968;2024-01-15T04:08:20;20.60;;;7.67;;
6821;SDS011;3449;48.728;8.968;2024-01-15T04:10:47;19.30;;;7.63;;
6821;SDS011;3449;48.728;8.968;2024-01-15T04:13:14;19.40;;;6.53;;
6821;SDS011;3449;48.728;8.968;2024-01-15T04:15:41;19.20;;;7.20;;
6821;SDS011;3449;48.728;8.968;2024-01-15T04:18:08;14.73;;;6.90;;
6821;SDS011;3449;48.728;8.968;2024-01-15T04:20:34;25.30;;;7.57;;
6821;SDS011;3449;48.728;8.968;2024-01-15T04:23:01;19.03;;;8.03;;
6821;SDS011;3449;48.728;8.968;2024-01-15T04:25:30;27.17;;;7.80;;
6821;SDS011;3449;48.728;8.968;2024-01-15T04:27:57;22.00;;;7.03;;
6821;SDS011;3449;48.728;8.968;2024-01-15T04:30:24;22.30;;;8.10;;
6821;SDS011;3449;48.728;8.968;2024-01-15T04:32:50;22.23;;;7.80;;
6821;SDS011;3449;48.728;8.968;2024-01-15T04:35:17;20.60;;;7.90;;
6821;SDS011;3449;48.728;8.968;2024-01-15T04:37:44;20.40;;;8.23;;
6821;SDS011;3449;48.728;8.968;2024-01-15T04:40:11;23.63;;;7.93;;
6821;SDS011;3449;48.728;8.968;2024-01-15T04:42:40;22.20;;;8.80;;
6821;SDS011;3449;48.728;8.968;2024-01-15T04:45:07;24.07;;;7.90;;
6821;SDS011;3449;48.728;8.968;2024-01-15T04:47:34;16.50;;;6.17;;
6821;SDS011;3449;48.728;8.968;2024-01-15T04:50:02;21.43;;;7.43;;
6821;SDS011;3449;48.728;8.968;2024-01-15T04:52:29;19.30;;;6.60;;
6821;SDS011;3449;48.728;8.968;2024-01-15T04:54:56;17.87;;;7.00;;
6821;SDS011;3449;48.728;8.968;2024-01-15T04:57:23;16.23;;;7.13;;
6821;SDS011;3449;48.728;8.968;2024-01-15T04:59:51;18.47;;;7.17;;
6821;SDS011;3449;48.728;8.968;2024-01-15T05:02:18;16.27;;;7.10;;
6821;SDS011;3449;48.728;8.968;2024-01-15T05:04:45;28.83;;;7.57;;
6821;SDS011;3449;48.728;8.968;2024-01-15T05:07:11;16.70;;;6.57;;
6821;SDS011;3449;48.728;8.968;2024-01-15T05:09:38;16.73;;;6.30;;
6821;SDS011;3449;48.728;8.968;2024-01-15T05:12:08;19.50;;;7.17;;
6821;SDS011;3449;48.728;8.968;2024-01-15T05:14:34;14.27;;;6.60;;
6821;SDS011;3449;48.728;8.968;2024-01-15T05:17:03;16.03;;;6.77;;
6821;SDS011;3449;48.728;8.968;2024-01-15T05:19:30;18.20;;;7.47;;
6821;SDS011;3449;48.728;8.968;2024-01-15T05:21:56;20.43;;;7.50;;
6821;SDS011;3449;48.728;8.968;2024-01-15T05:24:23;18.20;;;6.93;;
6821;SDS011;3449;48.728;8.968;2024-01-15T05:26:51;20.97;;;8.30;;
6821;SDS011;3449;48.728;8.968;2024-01-15T05:29:18;15.47;;;7.03;;
6821;SDS011;3449;48.728;8.968;2024-01-15T05:31:45;22.47;;;8.00;;
6821;SDS011;3449;48.728;8.968;2024-01-15T05:34:13;20.03;;;7.07;;
6821;SDS011;3449;48.728;8.968;2024-01-15T05:36:40;21.03;;;8.33;;
6821;SDS011;3449;48.728;8.968;2024-01-15T05:39:07;19.93;;;7.07;;
6821;SDS011;3449;48.728;8.968;2024-01-15T05:41:34;16.90;;;6.73;;
6821;SDS011;3449;48.728;8.968;2024-01-15T05:44:01;21.17;;;8.00;;
6821;SDS011;3449;48.728;8.968;2024-01-15T05:46:28;19.27;;;7.87;;
6821;SDS011;3449;48.728;8.968;2024-01-15T05:48:54;17.97;;;7.00;;
6821;SDS011;3449;48.728;8.968;2024-01-15T05:51:23;15.77;;;6.73;;
6821;SDS011;3449;48.728;8.968;2024-01-15T05:53:50;15.20;;;6.90;;
6821;SDS011;3449;48.728;8.968;2024-01-15T05:56:16;21.13;;;8.43;;
6821;SDS011;3449;48.728;8.968;2024-01-15T05:58:43;17.10;;;6.93;;
6821;SDS011;3449;48.728;8.968;2024-01-15T06:01:10;18.00;;;7.37;;
6821;SDS011;3449;48.728;8.968;2024-01-15T06:03:37;19.47;;;7.30;;
6821;SDS011;3449;48.728;8.968;2024-01-15T06:06:04;13.30;;;7.20;;
6821;SDS011;3449;48.728;8.968;2024-01-15T06:08:32;18.20;;;6.70;;
6821;SDS011;3449;48.728;8.968;2024-01-15T06:10:59;13.93;;;6.70;;
6821;SDS011;3449;48.728;8.968;2024-01-15T06:13:26;22.97;;;6.90;;
6821;SDS011;3449;48.728;8.968;2024-01-15T06:15:53;17.47;;;7.17;;
6821;SDS011;3449;48.728;8.968;2024-01-15T06:18:19;16.33;;;5.90;;
6821;SDS011;3449;48.728;8.968;2024-01-15T06:20:46;12.80;;;5.70;;
6821;SDS011;3449;48.728;8.968;2024-01-15T06:23:13;14.10;;;6.70;;
6821;SDS011;3449;48.728;8.968;2024-01-15T06:25:41;15.07;;;5.73;;
6821;SDS011;3449;48.728;8.968;2024-01-15T06:28:08;14.50;;;5.57;;
6821;SDS011;3449;48.728;8.968;2024-01-15T06:30:35;12.57;;;5.50;;
6821;SDS011;3449;48.728;8.968;2024-01-15T06:33:02;12.70;;;5.70;;
6821;SDS011;3449;48.728;8.968;2024-01-15T06:35:29;9.73;;;5.07;;
6821;SDS011;3449;48.728;8.968;2024-01-15T06:37:56;13.20;;;5.60;;
6821;SDS011;3449;48.728;8.968;2024-01-15T06:40:23;13.20;;;5.67;;
6821;SDS011;3449;48.728;8.968;2024-01-15T06:42:51;14.47;;;5.97;;
6821;SDS011;3449;48.728;8.968;2024-01-15T06:45:18;20.20;;;5.50;;
6821;SDS011;3449;48.728;8.968;2024-01-15T06:47:45;20.93;;;7.13;;
6821;SDS011;3449;48.728;8.968;2024-01-15T06:50:11;18.60;;;5.87;;
6821;SDS011;3449;48.728;8.968;2024-01-15T06:52:38;13.73;;;6.37;;
6821;SDS011;3449;48.728;8.968;2024-01-15T06:55:05;16.40;;;6.23;;
6821;SDS011;3449;48.728;8.968;2024-01-15T06:57:33;17.97;;;6.70;;
6821;SDS011;3449;48.728;8.968;2024-01-15T07:00:01;15.17;;;6.17;;
6821;SDS011;3449;48.728;8.968;2024-01-15T07:02:32;11.40;;;6.20;;
6821;SDS011;3449;48.728;8.968;2024-01-15T07:04:59;12.70;;;5.90;;
6821;SDS011;3449;48.728;8.968;2024-01-15T07:07:27;17.00;;;6.40;;
6821;SDS011;3449;48.728;8.968;2024-01-15T07:09:54;16.03;;;6.77;;
6821;SDS011;3449;48.728;8.968;2024-01-15T07:12:21;11.20;;;5.73;;
6821;SDS011;3449;48.728;8.968;2024-01-15T07:14:48;17.27;;;6.23;;
6821;SDS011;3449;48.728;8.968;2024-01-15T07:17:17;13.63;;;5.07;;
6821;SDS011;3449;48.728;8.968;2024-01-15T07:19:44;15.50;;;7.03;;
6821;SDS011;3449;48.728;8.968;2024-01-15T07:22:11;13.60;;;6.10;;
6821;SDS011;3449;48.728;8.968;2024-01-15T07:24:38;14.20;;;5.50;;
6821;SDS011;3449;48.728;8.968;2024-01-15T07:27:05;14.93;;;6.20;;
6821;SDS011;3449;48.728;8.968;2024-01-15T07:29:33;17.43;;;7.10;;
6821;SDS011;3449;48.728;8.968;2024-01-15T07:32:02;17.57;;;7.63;;
6821;SDS011;3449;48.728;8.968;2024-01-15T07:34:31;13.73;;;6.63;;
6821;SDS011;3449;48.728;8.968;2024-01-15T07:36:58;18.50;;;7.27;;
6821;SDS011;3449;48.728;8.968;2024-01-15T07:39:24;18.97;;;6.97;;
6821;SDS011;3449;48.728;8.968;2024-01-15T07:41:53;19.97;;;7.27;;
6821;SDS011;3449;48.728;8.968;2024-01-15T07:44:20;15.70;;;7.73;;
6821;SDS011;3449;48.728;8.968;2024-01-15T07:46:47;15.83;;;6.90;;
6821;SDS011;3449;48.728;8.968;2024-01-15T07:49:14;21.10;;;7.37;;
6821;SDS011;3449;48.728;8.968;2024-01-15T07:51:43;16.37;;;7.70;;
6821;SDS011;3449;48.728;8.968;2024-01-15T07:54:10;18.50;;;6.27;;
6821;SDS011;3449;48.728;8.968;2024-01-15T07:59:19;19.70;;;6.87;;
6821;SDS011;3449;48.728;8.968;2024-01-15T08:01:46;17.43;;;6.33;;
6821;SDS011;3449;48.728;8.968;2024-01-15T08:04:13;14.10;;;5.50;;
6821;SDS011;3449;48.728;8.968;2024-01-15T08:06:40;14.60;;;5.80;;
6821;SDS011;3449;48.728;8.968;2024-01-15T08:09:08;12.80;;;5.07;;
6821;SDS011;3449;48.728;8.968;2024-01-15T08:11:35;15.93;;;5.93;;
6821;SDS011;3449;48.728;8.968;2024-01-15T08:14:05;8.60;;;4.70;;
6821;SDS011;3449;48.728;8.968;2024-01-15T08:16:32;12.70;;;4.80;;
6821;SDS011;3449;48.728;8.968;2024-01-15T08:18:59;7.97;;;4.50;;
6821;SDS011;3449;48.728;8.968;2024-01-15T08:21:26;10.77;;;5.10;;
6821;SDS011;3449;48.728;8.968;2024-01-15T08:23:55;13.50;;;5.27;;
6821;SDS011;3449;48.728;8.968;2024-01-15T08:26:23;10.27;;;4.90;;
6821;SDS011;3449;48.728;8.968;2024-01-15T08:28:50;13.00;;;5.00;;
6821;SDS011;3449;48.728;8.968;2024-01-15T08:31:17;14.87;;;4.47;;
6821;SDS011;3449;48.728;8.968;2024-01-15T08:33:44;16.47;;;4.83;;
6821;SDS011;3449;48.728;8.968;2024-01-15T08:36:11;8.53;;;4.57;;
6821;SDS011;3449;48.728;8.968;2024-01-15T08:38:38;11.00;;;4.43;;
6821;SDS011;3449;48.728;8.968;2024-01-15T08:41:04;11.43;;;4.60;;
6821;SDS011;3449;48.728;8.968;2024-01-15T08:43:34;12.63;;;5.37;;
6821;SDS011;3449;48.728;8.968;2024-01-15T08:46:02;9.20;;;3.90;;
6821;SDS011;3449;48.728;8.968;2024-01-15T08:48:29;8.37;;;4.10;;
6821;SDS011;3449;48.728;8.968;2024-01-15T08:50:56;8.60;;;4.67;;
6821;SDS011;3449;48.728;8.968;2024-01-15T08:53:23;16.50;;;5.10;;
6821;SDS011;3449;48.728;8.968;2024-01-15T08:55:49;9.73;;;4.40;;
6821;SDS011;3449;48.728;8.968;2024-01-15T08:58:17;10.90;;;4.97;;
6821;SDS011;3449;48.728;8.968;2024-01-15T09:00:45;12.30;;;5.27;;
6821;SDS011;3449;48.728;8.968;2024-01-15T09:03:12;10.37;;;4.37;;
6821;SDS011;3449;48.728;8.968;2024-01-15T09:05:39;11.40;;;4.40;;
6821;SDS011;3449;48.728;8.968;2024-01-15T09:08:07;12.33;;;3.80;;
6821;SDS011;3449;48.728;8.968;2024-01-15T09:10:34;7.83;;;3.73;;
6821;SDS011;3449;48.728;8.968;2024-01-15T09:13:01;13.73;;;5.13;;
6821;SDS011;3449;48.728;8.968;2024-01-15T09:15:29;8.20;;;3.60;;
6821;SDS011;3449;48.728;8.968;2024-01-15T09:17:58;10.23;;;4.53;;
6821;SDS011;3449;48.728;8.968;2024-01-15T09:20:27;7.73;;;4.00;;
6821;SDS011;3449;48.728;8.968;2024-01-15T09:22:54;10.27;;;3.93;;
6821;SDS011;3449;48.728;8.968;2024-01-15T09:25:20;15.17;;;4.07;;
6821;SDS011;3449;48.728;8.968;2024-01-15T09:27:47;5.73;;;3.57;;
6821;SDS011;3449;48.728;8.968;2024-01-15T09:30:14;11.10;;;3.87;;
6821;SDS011;3449;48.728;8.968;2024-01-15T09:32:41;6.73;;;3.50;;
6821;SDS011;3449;48.728;8.968;2024-01-15T09:35:10;6.60;;;3.97;;
6821;SDS011;3449;48.728;8.968;2024-01-15T09:37:37;9.20;;;3.37;;
6821;SDS011;3449;48.728;8.968;2024-01-15T09:40:05;7.50;;;3.37;;
6821;SDS011;3449;48.728;8.968;2024-01-15T09:42:34;7.63;;;4.30;;
6821;SDS011;3449;48.728;8.968;2024-01-15T09:45:02;7.90;;;3.20;;
6821;SDS011;3449;48.728;8.968;2024-01-15T09:47:29;16.37;;;4.83;;
6821;SDS011;3449;48.728;8.968;2024-01-15T09:49:57;10.00;;;3.80;;
6821;SDS011;3449;48.728;8.968;2024-01-15T09:52:25;7.00;;;3.73;;
6821;SDS011;3449;48.728;8.968;2024-01-15T09:54:53;8.90;;;4.30;;
6821;SDS011;3449;48.728;8.968;2024-01-15T09:57:20;9.03;;;4.10;;
6821;SDS011;3449;48.728;8.968;2024-01-15T09:59:47;11.83;;;4.40;;
6821;SDS011;3449;48.728;8.968;2024-01-15T10:02:15;7.70;;;3.80;;
6821;SDS011;3449;48.728;8.968;2024-01-15T10:04:43;9.93;;;4.47;;
6821;SDS011;3449;48.728;8.968;2024-01-15T10:07:11;7.27;;;3.03;;
6821;SDS011;3449;48.728;8.968;2024-01-15T10:09:45;10.80;;;3.33;;
6821;SDS011;3449;48.728;8.968;2024-01-15T10:12:12;8.30;;;4.20;;
6821;SDS011;3449;48.728;8.968;2024-01-15T10:14:40;10.20;;;4.53;;
6821;SDS011;3449;48.728;8.968;2024-01-15T10:17:12;9.10;;;3.87;;
6821;SDS011;3449;48.728;8.968;2024-01-15T10:19:40;7.03;;;3.87;;
6821;SDS011;3449;48.728;8.968;2024-01-15T10:22:07;8.53;;;3.73;;
6821;SDS011;3449;48.728;8.968;2024-01-15T10:24:35;10.17;;;3.83;;
6821;SDS011;3449;48.728;8.968;2024-01-15T10:27:07;7.00;;;3.60;;
6821;SDS011;3449;48.728;8.968;2024-01-15T10:29:35;5.73;;;3.03;;
6821;SDS011;3449;48.728;8.968;2024-01-15T10:32:02;8.03;;;3.60;;
6821;SDS011;3449;48.728;8.968;2024-01-15T10:34:32;9.07;;;2.93;;
6821;SDS011;3449;48.728;8.968;2024-01-15T10:36:59;5.93;;;4.00;;
6821;SDS011;3449;48.728;8.968;2024-01-15T10:39:27;7.40;;;4.00;;
6821;SDS011;3449;48.728;8.968;2024-01-15T10:41:55;5.97;;;3.20;;
6821;SDS011;3449;48.728;8.968;2024-01-15T10:44:23;5.47;;;3.60;;
6821;SDS011;3449;48.728;8.968;2024-01-15T10:46:51;7.20;;;4.23;;
6821;SDS011;3449;48.728;8.968;2024-01-15T10:49:18;6.50;;;3.67;;
6821;SDS011;3449;48.728;8.968;2024-01-15T10:51:46;7.30;;;3.63;;
6821;SDS011;3449;48.728;8.968;2024-01-15T10:54:14;11.63;;;3.63;;
6821;SDS011;3449;48.728;8.968;2024-01-15T10:56:42;5.80;;;3.00;;
6821;SDS011;3449;48.728;8.968;2024-01-15T10:59:11;8.20;;;4.30;;
6821;SDS011;3449;48.728;8.968;2024-01-15T11:01:41;5.83;;;3.00;;
6821;SDS011;3449;48.728;8.968;2024-01-15T11:04:09;10.93;;;4.00;;
6821;SDS011;3449;48.728;8.968;2024-01-15T11:06:42;10.90;;;4.20;;
6821;SDS011;3449;48.728;8.968;2024-01-15T11:09:11;7.17;;;3.83;;
6821;SDS011;3449;48.728;8.968;2024-01-15T11:11:40;8.13;;;4.20;;
6821;SDS011;3449;48.728;8.968;2024-01-15T11:14:08;11.73;;;4.87;;
6821;SDS011;3449;48.728;8.968;2024-01-15T11:16:55;10.67;;;4.33;;
6821;SDS011;3449;48.728;8.968;2024-01-15T11:19:24;7.40;;;3.73;;
6821;SDS011;3449;48.728;8.968;2024-01-15T11:21:51;9.33;;;4.43;;
6821;SDS011;3449;48.728;8.968;2024-01-15T11:27:03;9.50;;;3.53;;
6821;SDS011;3449;48.728;8.968;2024-01-15T11:29:31;12.33;;;5.03;;
6821;SDS011;3449;48.728;8.968;2024-01-15T11:32:01;8.17;;;3.33;;
6821;SDS011;3449;48.728;8.968;2024-01-15T11:34:49;9.37;;;3.07;;
6821;SDS011;3449;48.728;8.968;2024-01-15T11:37:22;14.30;;;4.63;;
6821;SDS011;3449;48.728;8.968;2024-01-15T11:39:54;8.00;;;3.93;;
6821;SDS011;3449;48.728;8.968;2024-01-15T11:42:22;9.13;;;4.67;;
6821;SDS011;3449;48.728;8.968;2024-01-15T11:44:49;10.43;;;4.23;;
6821;SDS011;3449;48.728;8.968;2024-01-15T11:47:22;13.43;;;4.17;;
6821;SDS011;3449;48.728;8.968;2024-01-15T11:50:21;7.83;;;4.07;;
6821;SDS011;3449;48.728;8.968;2024-01-15T11:52:50;7.97;;;4.10;;
6821;SDS011;3449;48.728;8.968;2024-01-15T11:55:25;12.20;;;5.50;;
6821;SDS011;3449;48.728;8.968;2024-01-15T11:57:54;9.13;;;4.60;;
6821;SDS011;3449;48.728;8.968;2024-01-15T12:00:23;8.43;;;4.00;;
6821;SDS011;3449;48.728;8.968;2024-01-15T12:02:52;13.70;;;4.77;;
6821;SDS011;3449;48.728;8.968;2024-01-15T12:05:19;8.13;;;4.40;;
6821;SDS011;3449;48.728;8.968;2024-01-15T12:07:47;11.53;;;4.47;;
6821;SDS011;3449;48.728;8.968;2024-01-15T12:10:16;9.20;;;4.50;;
6821;SDS011;3449;48.728;8.968;2024-01-15T12:12:47;9.57;;;4.40;;
6821;SDS011;3449;48.728;8.968;2024-01-15T12:15:23;7.00;;;3.60;;
6821;SDS011;3449;48.728;8.968;2024-01-15T12:17:52;7.43;;;4.83;;
6821;SDS011;3449;48.728;8.968;2024-01-15T12:20:19;9.77;;;5.10;;
6821;SDS011;3449;48.728;8.968;2024-01-15T12:22:46;13.20;;;4.40;;
6821;SDS011;3449;48.728;8.968;2024-01-15T12:25:12;6.70;;;4.00;;
6821;SDS011;3449;48.728;8.968;2024-01-15T12:27:39;10.07;;;5.47;;
6821;SDS011;3449;48.728;8.968;2024-01-15T12:30:07;10.23;;;4.80;;
6821;SDS011;3449;48.728;8.968;2024-01-15T12:32:37;7.13;;;4.00;;
6821;SDS011;3449;48.728;8.968;2024-01-15T12:35:05;7.03;;;3.90;;
6821;SDS011;3449;48.728;8.968;2024-01-15T12:37:34;9.93;;;4.10;;
6821;SDS011;3449;48.728;8.968;2024-01-15T12:40:01;14.43;;;4.13;;
6821;SDS011;3449;48.728;8.968;2024-01-15T12:42:29;8.17;;;4.17;;
6821;SDS011;3449;48.728;8.968;2024-01-15T12:44:56;8.03;;;4.47;;
6821;SDS011;3449;48.728;8.968;2024-01-15T12:47:23;9.43;;;4.13;;
6821;SDS011;3449;48.728;8.968;2024-01-15T12:49:51;9.00;;;3.90;;
6821;SDS011;3449;48.728;8.968;2024-01-15T12:52:21;8.30;;;4.03;;
6821;SDS011;3449;48.728;8.968;2024-01-15T12:54:48;8.93;;;4.83;;
6821;SDS011;3449;48.728;8.968;2024-01-15T12:57:15;9.67;;;4.10;;
6821;SDS011;3449;48.728;8.968;2024-01-15T12:59:42;11.50;;;4.53;;
6821;SDS011;3449;48.728;8.968;2024-01-15T13:02:09;7.20;;;4.03;;
6821;SDS011;3449;48.728;8.968;2024-01-15T13:04:36;11.33;;;5.13;;
6821;SDS011;3449;48.728;8.968;2024-01-15T13:07:03;10.03;;;4.83;;
6821;SDS011;3449;48.728;8.968;2024-01-15T13:09:32;8.40;;;4.17;;
6821;SDS011;3449;48.728;8.968;2024-01-15T13:11:59;6.90;;;3.87;;
6821;SDS011;3449;48.728;8.968;2024-01-15T13:14:26;4.97;;;3.50;;
6821;SDS011;3449;48.728;8.968;2024-01-15T13:16:54;10.17;;;4.20;;
6821;SDS011;3449;48.728;8.968;2024-01-15T13:19:21;5.70;;;3.83;;
6821;SDS011;3449;48.728;8.968;2024-01-15T13:21:48;11.93;;;4.67;;
6821;SDS011;3449;48.728;8.968;2024-01-15T13:24:15;7.53;;;3.90;;
6821;SDS011;3449;48.728;8.968;2024-01-15T13:26:43;6.30;;;3.43;;
6821;SDS011;3449;48.728;8.968;2024-01-15T13:29:10;11.20;;;4.70;;
6821;SDS011;3449;48.728;8.968;2024-01-15T13:31:37;7.90;;;3.30;;
6821;SDS011;3449;48.728;8.968;2024-01-15T13:34:04;6.20;;;2.70;;
6821;SDS011;3449;48.728;8.968;2024-01-15T13:36:32;6.70;;;3.60;;
6821;SDS011;3449;48.728;8.968;2024-01-15T13:38:59;7.77;;;3.67;;
6821;SDS011;3449;48.728;8.968;2024-01-15T13:41:26;9.10;;;3.80;;
6821;SDS011;3449;48.728;8.968;2024-01-15T13:43:56;6.47;;;3.67;;
6821;SDS011;3449;48.728;8.968;2024-01-15T13:46:24;6.60;;;3.40;;
6821;SDS011;3449;48.728;8.968;2024-01-15T13:48:52;8.77;;;3.80;;
6821;SDS011;3449;48.728;8.968;2024-01-15T13:51:21;8.57;;;3.67;;
6821;SDS011;3449;48.728;8.968;2024-01-15T13:53:49;8.97;;;3.70;;
6821;SDS011;3449;48.728;8.968;2024-01-15T13:56:16;6.47;;;3.30;;
6821;SDS011;3449;48.728;8.968;2024-01-15T13:58:43;5.70;;;3.40;;
6821;SDS011;3449;48.728;8.968;2024-01-15T14:01:11;5.97;;;3.53;;
6821;SDS011;3449;48.728;8.968;2024-01-15T14:03:38;10.70;;;4.20;;
6821;SDS011;3449;48.728;8.968;2024-01-15T14:06:05;9.17;;;4.20;;
6821;SDS011;3449;48.728;8.968;2024-01-15T14:08:34;14.93;;;6.70;;
6821;SDS011;3449;48.728;8.968;2024-01-15T14:11:01;12.50;;;5.10;;
6821;SDS011;3449;48.728;8.968;2024-01-15T14:13:28;10.90;;;5.30;;
6821;SDS011;3449;48.728;8.968;2024-01-15T14:15:55;10.67;;;5.30;;
6821;SDS011;3449;48.728;8.968;2024-01-15T14:18:23;3.53;;;2.10;;
6821;SDS011;3449;48.728;8.968;2024-01-15T14:20:50;2.73;;;1.90;;
6821;SDS011;3449;48.728;8.968;2024-01-15T14:23:18;2.73;;;2.07;;
6821;SDS011;3449;48.728;8.968;2024-01-15T14:25:45;4.90;;;2.57;;
6821;SDS011;3449;48.728;8.968;2024-01-15T14:28:12;2.63;;;1.80;;
6821;SDS011;3449;48.728;8.968;2024-01-15T14:30:39;2.80;;;1.70;;
6821;SDS011;3449;48.728;8.968;2024-01-15T14:33:06;3.17;;;1.60;;
6821;SDS011;3449;48.728;8.968;2024-01-15T14:35:34;1.37;;;1.23;;
6821;SDS011;3449;48.728;8.968;2024-01-15T14:38:01;2.03;;;1.80;;
6821;SDS011;3449;48.728;8.968;2024-01-15T14:40:30;3.80;;;2.13;;
6821;SDS011;3449;48.728;8.968;2024-01-15T14:42:56;5.70;;;2.97;;
6821;SDS011;3449;48.728;8.968;2024-01-15T14:45:24;3.23;;;2.40;;
6821;SDS011;3449;48.728;8.968;2024-01-15T14:47:52;2.20;;;2.00;;
6821;SDS011;3449;48.728;8.968;2024-01-15T14:50:19;3.63;;;2.67;;
6821;SDS011;3449;48.728;8.968;2024-01-15T14:52:47;2.50;;;1.93;;
6821;SDS011;3449;48.728;8.968;2024-01-15T14:55:14;3.13;;;2.17;;
6821;SDS011;3449;48.728;8.968;2024-01-15T14:57:41;2.93;;;2.37;;
6821;SDS011;3449;48.728;8.968;2024-01-15T15:00:08;6.33;;;3.30;;
6821;SDS011;3449;48.728;8.968;2024-01-15T15:02:37;4.83;;;2.97;;
6821;SDS011;3449;48.728;8.968;2024-01-15T15:05:04;3.97;;;2.73;;
6821;SDS011;3449;48.728;8.968;2024-01-15T15:07:32;4.20;;;2.70;;
6821;SDS011;3449;48.728;8.968;2024-01-15T15:10:02;3.93;;;2.93;;
6821;SDS011;3449;48.728;8.968;2024-01-15T15:12:30;3.70;;;3.00;;